sensor_id;sensor_type;location;lat;lon;timestamp;pressure;altitude;pressure_sealevel;temperature;humidity
14041;BME280;7095;51.388;6.196;2023-02-02T00:02:26;56102.47;;;-145.32;100.00
14041;BME280;7095;51.388;6.196;2023-02-02T00:04:56;56221.84;;;-145.32;100.00
14041;BME280;7095;51.388;6.196;2023-02-02T00:07:25;56534.25;;;-145.32;100.00
14041;BME280;7095;51.388;6.196;2023-02-02T00:09:53;56846.66;;;-145.32;100.00
14041;BME280;7095;51.388;6.196;2023-02-02T00:12:22;57127.28;;;-145.32;100.00
14041;BME280;7095;51.388;6.196;2023-02-02T00:14:50;57397.94;;;-145.32;100.00
14041;BME280;7095;51.388;6.196;2023-02-02T00:17:19;57664.66;;;-145.32;100.00
14041;BME280;7095;51.388;6.196;2023-02-02T00:19:47;57760.22;;;-145.32;100.00
14041;BME280;7095;51.388;6.196;2023-02-02T00:22:17;57648.75;;;-145.32;100.00
14041;BME280;7095;51.388;6.196;2023-02-02T00:24:45;57648.75;;;-145.32;100.00
14041;BME280;7095;51.388;6.196;2023-02-02T00:27:14;57616.88;;;-145.32;100.00
14041;BME280;7095;51.388;6.196;2023-02-02T00:29:42;57756.22;;;-145.32;100.00
14041;BME280;7095;51.388;6.196;2023-02-02T00:32:11;57714.44;;;-145.32;100.00
14041;BME280;7095;51.388;6.196;2023-02-02T00:34:39;57503.44;;;-145.32;100.00
14041;BME280;7095;51.388;6.196;2023-02-02T00:37:08;57616.88;;;-145.32;100.00
14041;BME280;7095;51.388;6.196;2023-02-02T00:39:37;57835.84;;;-145.32;100.00
14041;BME280;7095;51.388;6.196;2023-02-02T00:42:08;58134.44;;;-145.32;100.00
14041;BME280;7095;51.388;6.196;2023-02-02T00:44:36;58325.56;;;-145.32;100.00
14041;BME280;7095;51.388;6.196;2023-02-02T00:47:22;58739.72;;;-145.32;100.00
14041;BME280;7095;51.388;6.196;2023-02-02T00:49:51;58751.66;;;-145.32;100.00
14041;BME280;7095;51.388;6.196;2023-02-02T00:52:19;58990.59;;;-145.32;100.00
14041;BME280;7095;51.388;6.196;2023-02-02T00:54:49;59245.50;;;-145.32;100.00
14041;BME280;7095;51.388;6.196;2023-02-02T00:57:18;59502.41;;;-145.32;100.00
14041;BME280;7095;51.388;6.196;2023-02-02T00:59:46;59922.66;;;-145.32;100.00
14041;BME280;7095;51.388;6.196;2023-02-02T01:02:14;60082.00;;;-145.32;100.00
14041;BME280;7095;51.388;6.196;2023-02-02T01:04:43;60526.22;;;-145.32;100.00
14041;BME280;7095;51.388;6.196;2023-02-02T01:07:14;60721.47;;;-145.32;100.00
14041;BME280;7095;51.388;6.196;2023-02-02T01:09:43;60958.56;;;-145.32;100.00
14041;BME280;7095;51.388;6.196;2023-02-02T01:12:13;61195.66;;;-145.32;100.00
14041;BME280;7095;51.388;6.196;2023-02-02T01:14:42;61305.25;;;-145.32;100.00
14041;BME280;7095;51.388;6.196;2023-02-02T01:17:10;61572.28;;;-145.32;100.00
14041;BME280;7095;51.388;6.196;2023-02-02T01:19:39;61869.22;;;-145.32;100.00
14041;BME280;7095;51.388;6.196;2023-02-02T01:22:08;61883.16;;;-145.32;100.00
14041;BME280;7095;51.388;6.196;2023-02-02T01:24:36;61970.88;;;-145.32;100.00
14041;BME280;7095;51.388;6.196;2023-02-02T01:27:05;62162.19;;;-145.32;100.00
14041;BME280;7095;51.388;6.196;2023-02-02T01:29:35;62395.41;;;-145.32;100.00
14041;BME280;7095;51.388;6.196;2023-02-02T01:32:04;62202.06;;;-145.32;100.00
14041;BME280;7095;51.388;6.196;2023-02-02T01:34:32;62708.38;;;-145.32;100.00
14041;BME280;7095;51.388;6.196;2023-02-02T01:37:00;63553.69;;;-145.32;100.00
14041;BME280;7095;51.388;6.196;2023-02-02T01:39:29;63529.75;;;-145.32;100.00
14041;BME280;7095;51.388;6.196;2023-02-02T01:42:00;63842.84;;;-145.32;100.00
14041;BME280;7095;51.388;6.196;2023-02-02T01:45:06;63834.84;;;-145.32;100.00
14041;BME280;7095;51.388;6.196;2023-02-02T01:47:41;63785.00;;;-145.32;100.00
14041;BME280;7095;51.388;6.196;2023-02-02T01:50:13;63454.00;;;-145.32;100.00
14041;BME280;7095;51.388;6.196;2023-02-02T01:52:45;63954.50;;;-145.32;100.00
14041;BME280;7095;51.388;6.196;2023-02-02T01:55:18;64323.44;;;-145.32;100.00
14041;BME280;7095;51.388;6.196;2023-02-02T01:57:52;64578.75;;;-145.32;100.00
14041;BME280;7095;51.388;6.196;2023-02-02T02:00:23;63753.09;;;-145.32;100.00
14041;BME280;7095;51.388;6.196;2023-02-02T02:02:56;63156.91;;;-145.32;100.00
14041;BME280;7095;51.388;6.196;2023-02-02T02:05:29;62335.59;;;-145.32;100.00
14041;BME280;7095;51.388;6.196;2023-02-02T02:08:04;62265.84;;;-145.32;100.00
14041;BME280;7095;51.388;6.196;2023-02-02T02:10:35;61141.88;;;-145.32;100.00
14041;BME280;7095;51.388;6.196;2023-02-02T02:13:04;61119.94;;;-145.32;100.00
14041;BME280;7095;51.388;6.196;2023-02-02T02:15:40;60480.41;;;-145.32;100.00
14041;BME280;7095;51.388;6.196;2023-02-02T02:18:35;60153.72;;;-145.32;100.00
14041;BME280;7095;51.388;6.196;2023-02-02T02:21:31;59936.59;;;-145.32;100.00
14041;BME280;7095;51.388;6.196;2023-02-02T02:25:00;59773.25;;;-145.32;100.00
14041;BME280;7095;51.388;6.196;2023-02-02T02:28:20;59147.91;;;-145.32;100.00
14041;BME280;7095;51.388;6.196;2023-02-02T02:33:50;59301.25;;;-145.32;100.00
14041;BME280;7095;51.388;6.196;2023-02-02T02:36:41;59116.06;;;-145.32;100.00
14041;BME280;7095;51.388;6.196;2023-02-02T02:39:17;59245.50;;;-145.32;100.00
14041;BME280;7095;51.388;6.196;2023-02-02T02:41:51;59269.38;;;-145.32;100.00
14041;BME280;7095;51.388;6.196;2023-02-02T02:44:23;59458.59;;;-145.32;100.00
14041;BME280;7095;51.388;6.196;2023-02-02T02:46:54;59785.22;;;-145.32;100.00
14041;BME280;7095;51.388;6.196;2023-02-02T02:49:25;59910.69;;;-145.32;100.00
14041;BME280;7095;51.388;6.196;2023-02-02T02:51:55;60010.28;;;-145.32;100.00
14041;BME280;7095;51.388;6.196;2023-02-02T02:54:33;59854.94;;;-145.32;100.00
14041;BME280;7095;51.388;6.196;2023-02-02T02:57:18;59570.09;;;-145.32;100.00
14041;BME280;7095;51.388;6.196;2023-02-02T02:59:54;59520.31;;;-145.32;100.00
14041;BME280;7095;51.388;6.196;2023-02-02T03:02:35;59161.84;;;-145.32;100.00
14041;BME280;7095;51.388;6.196;2023-02-02T03:05:25;59241.50;;;-145.32;100.00
14041;BME280;7095;51.388;6.196;2023-02-02T03:08:03;59259.44;;;-145.32;100.00
14041;BME280;7095;51.388;6.196;2023-02-02T03:10:35;59000.56;;;-145.32;100.00
14041;BME280;7095;51.388;6.196;2023-02-02T03:13:07;59197.69;;;-145.32;100.00
14041;BME280;7095;51.388;6.196;2023-02-02T03:15:39;59030.44;;;-145.32;100.00
14041;BME280;7095;51.388;6.196;2023-02-02T03:18:08;59141.94;;;-145.32;100.00
14041;BME280;7095;51.388;6.196;2023-02-02T03:20:38;59030.44;;;-145.32;100.00
14041;BME280;7095;51.388;6.196;2023-02-02T03:23:06;58891.03;;;-145.32;100.00
14041;BME280;7095;51.388;6.196;2023-02-02T03:25:36;58662.06;;;-145.32;100.00
14041;BME280;7095;51.388;6.196;2023-02-02T03:28:05;58699.88;;;-145.32;100.00
14041;BME280;7095;51.388;6.196;2023-02-02T03:30:34;58536.63;;;-145.32;100.00
14041;BME280;7095;51.388;6.196;2023-02-02T03:33:04;58532.63;;;-145.32;100.00
14041;BME280;7095;51.388;6.196;2023-02-02T03:35:33;58275.81;;;-145.32;100.00
14041;BME280;7095;51.388;6.196;2023-02-02T03:38:03;58267.84;;;-145.32;100.00
14041;BME280;7095;51.388;6.196;2023-02-02T03:40:31;58255.91;;;-145.32;100.00
14041;BME280;7095;51.388;6.196;2023-02-02T03:43:00;58259.88;;;-145.32;100.00
14041;BME280;7095;51.388;6.196;2023-02-02T03:45:29;58136.44;;;-145.32;100.00
14041;BME280;7095;51.388;6.196;2023-02-02T03:47:58;57919.47;;;-145.32;100.00
14041;BME280;7095;51.388;6.196;2023-02-02T03:50:26;58056.81;;;-145.32;100.00
14041;BME280;7095;51.388;6.196;2023-02-02T03:52:54;57754.25;;;-145.32;100.00
14041;BME280;7095;51.388;6.196;2023-02-02T03:55:24;57817.94;;;-145.32;100.00
14041;BME280;7095;51.388;6.196;2023-02-02T03:57:53;57915.47;;;-145.32;100.00
14041;BME280;7095;51.388;6.196;2023-02-02T04:00:21;57815.94;;;-145.32;100.00
14041;BME280;7095;51.388;6.196;2023-02-02T04:02:50;57752.25;;;-145.32;100.00
14041;BME280;7095;51.388;6.196;2023-02-02T04:05:18;57696.50;;;-145.32;100.00
14041;BME280;7095;51.388;6.196;2023-02-02T04:07:47;57652.72;;;-145.32;100.00
14041;BME280;7095;51.388;6.196;2023-02-02T04:10:17;57593.00;;;-145.32;100.00
14041;BME280;7095;51.388;6.196;2023-02-02T04:12:47;57487.50;;;-145.32;100.00
14041;BME280;7095;51.388;6.196;2023-02-02T04:15:15;57531.31;;;-145.32;100.00
14041;BME280;7095;51.388;6.196;2023-02-02T04:17:44;57553.19;;;-145.32;100.00
14041;BME280;7095;51.388;6.196;2023-02-02T04:20:12;57409.88;;;-145.32;100.00
14041;BME280;7095;51.388;6.196;2023-02-02T04:22:41;57409.88;;;-145.32;100.00
14041;BME280;7095;51.388;6.196;2023-02-02T04:25:09;57262.59;;;-145.32;100.00
14041;BME280;7095;51.388;6.196;2023-02-02T04:27:38;57165.09;;;-145.32;100.00
14041;BME280;7095;51.388;6.196;2023-02-02T04:30:09;57127.28;;;-145.32;100.00
14041;BME280;7095;51.388;6.196;2023-02-02T04:32:37;57033.72;;;-145.32;100.00
14041;BME280;7095;51.388;6.196;2023-02-02T04:35:07;57157.13;;;-145.32;100.00
14041;BME280;7095;51.388;6.196;2023-02-02T04:37:35;57342.22;;;-145.32;100.00
14041;BME280;7095;51.388;6.196;2023-02-02T04:40:05;57405.91;;;-145.32;100.00
14041;BME280;7095;51.388;6.196;2023-02-02T04:42:33;57326.28;;;-145.32;100.00
14041;BME280;7095;51.388;6.196;2023-02-02T04:45:02;57296.44;;;-145.32;100.00
14041;BME280;7095;51.388;6.196;2023-02-02T04:47:32;57324.31;;;-145.32;100.00
14041;BME280;7095;51.388;6.196;2023-02-02T04:50:00;57268.56;;;-145.32;100.00
14041;BME280;7095;51.388;6.196;2023-02-02T04:52:29;57139.22;;;-145.32;100.00
14041;BME280;7095;51.388;6.196;2023-02-02T04:54:57;57101.41;;;-145.32;100.00
14041;BME280;7095;51.388;6.196;2023-02-02T04:57:26;57063.59;;;-145.32;100.00
14041;BME280;7095;51.388;6.196;2023-02-02T04:59:54;57017.81;;;-145.32;100.00
14041;BME280;7095;51.388;6.196;2023-02-02T05:02:23;56948.16;;;-145.32;100.00
14041;BME280;7095;51.388;6.196;2023-02-02T05:04:53;56900.41;;;-145.32;100.00
14041;BME280;7095;51.388;6.196;2023-02-02T05:07:21;57003.88;;;-145.32;100.00
14041;BME280;7095;51.388;6.196;2023-02-02T05:09:50;56888.44;;;-145.32;100.00
14041;BME280;7095;51.388;6.196;2023-02-02T05:12:18;56820.78;;;-145.32;100.00
14041;BME280;7095;51.388;6.196;2023-02-02T05:14:46;56784.97;;;-145.32;100.00
14041;BME280;7095;51.388;6.196;2023-02-02T05:17:15;56769.06;;;-145.32;100.00
14041;BME280;7095;51.388;6.196;2023-02-02T05:19:43;56775.03;;;-145.32;100.00
14041;BME280;7095;51.388;6.196;2023-02-02T05:22:13;56633.75;;;-145.32;100.00
14041;BME280;7095;51.388;6.196;2023-02-02T05:24:41;56659.59;;;-145.32;100.00
14041;BME280;7095;51.388;6.196;2023-02-02T05:27:10;56629.75;;;-145.32;100.00
14041;BME280;7095;51.388;6.196;2023-02-02T05:29:38;56691.44;;;-145.32;100.00
14041;BME280;7095;51.388;6.196;2023-02-02T05:32:07;56645.69;;;-145.32;100.00
14041;BME280;7095;51.388;6.196;2023-02-02T05:34:35;56609.84;;;-145.32;100.00
14041;BME280;7095;51.388;6.196;2023-02-02T05:37:03;56625.78;;;-145.32;100.00
14041;BME280;7095;51.388;6.196;2023-02-02T05:39:33;56494.44;;;-145.32;100.00
14041;BME280;7095;51.388;6.196;2023-02-02T05:42:02;56532.25;;;-145.32;100.00
14041;BME280;7095;51.388;6.196;2023-02-02T05:44:30;56546.19;;;-145.32;100.00
14041;BME280;7095;51.388;6.196;2023-02-02T05:46:59;56572.06;;;-145.32;100.00
14041;BME280;7095;51.388;6.196;2023-02-02T05:49:28;56631.75;;;-145.32;100.00
14041;BME280;7095;51.388;6.196;2023-02-02T05:51:57;56657.63;;;-145.32;100.00
14041;BME280;7095;51.388;6.196;2023-02-02T05:54:25;56713.34;;;-145.32;100.00
14041;BME280;7095;51.388;6.196;2023-02-02T05:56:56;56737.22;;;-145.32;100.00
14041;BME280;7095;51.388;6.196;2023-02-02T05:59:27;56669.56;;;-145.32;100.00
14041;BME280;7095;51.388;6.196;2023-02-02T06:01:55;56675.53;;;-145.32;100.00
14041;BME280;7095;51.388;6.196;2023-02-02T06:04:24;56711.34;;;-145.32;100.00
14041;BME280;7095;51.388;6.196;2023-02-02T06:06:53;56741.19;;;-145.32;100.00
14041;BME280;7095;51.388;6.196;2023-02-02T06:09:21;56755.13;;;-145.32;100.00
14041;BME280;7095;51.388;6.196;2023-02-02T06:11:51;56633.75;;;-145.32;100.00
14041;BME280;7095;51.388;6.196;2023-02-02T06:14:21;56542.19;;;-145.32;100.00
14041;BME280;7095;51.388;6.196;2023-02-02T06:16:49;56669.56;;;-145.32;100.00
14041;BME280;7095;51.388;6.196;2023-02-02T06:19:18;56510.38;;;-145.32;100.00
14041;BME280;7095;51.388;6.196;2023-02-02T06:21:46;56510.38;;;-145.32;100.00
14041;BME280;7095;51.388;6.196;2023-02-02T06:24:15;56617.81;;;-145.32;100.00
14041;BME280;7095;51.388;6.196;2023-02-02T06:26:43;56745.16;;;-145.32;100.00
14041;BME280;7095;51.388;6.196;2023-02-02T06:29:12;56655.63;;;-145.32;100.00
14041;BME280;7095;51.388;6.196;2023-02-02T06:31:42;56669.56;;;-145.32;100.00
14041;BME280;7095;51.388;6.196;2023-02-02T06:34:11;56631.75;;;-145.32;100.00
14041;BME280;7095;51.388;6.196;2023-02-02T06:36:40;56681.50;;;-145.32;100.00
14041;BME280;7095;51.388;6.196;2023-02-02T06:39:09;56619.81;;;-145.32;100.00
14041;BME280;7095;51.388;6.196;2023-02-02T06:41:38;56673.53;;;-145.32;100.00
14041;BME280;7095;51.388;6.196;2023-02-02T06:44:06;56564.09;;;-145.32;100.00
14041;BME280;7095;51.388;6.196;2023-02-02T06:46:34;56530.25;;;-145.32;100.00
14041;BME280;7095;51.388;6.196;2023-02-02T06:49:04;56570.06;;;-145.32;100.00
14041;BME280;7095;51.388;6.196;2023-02-02T06:51:33;56585.97;;;-145.32;100.00
14041;BME280;7095;51.388;6.196;2023-02-02T06:54:01;56470.56;;;-145.32;100.00
14041;BME280;7095;51.388;6.196;2023-02-02T06:56:30;56474.53;;;-145.32;100.00
14041;BME280;7095;51.388;6.196;2023-02-02T06:58:58;56508.38;;;-145.32;100.00
14041;BME280;7095;51.388;6.196;2023-02-02T07:01:27;56478.53;;;-145.32;100.00
14041;BME280;7095;51.388;6.196;2023-02-02T07:03:58;56526.28;;;-145.32;100.00
14041;BME280;7095;51.388;6.196;2023-02-02T07:06:28;56478.53;;;-145.32;100.00
14041;BME280;7095;51.388;6.196;2023-02-02T07:08:56;56466.59;;;-145.32;100.00
14041;BME280;7095;51.388;6.196;2023-02-02T07:11:30;56534.25;;;-145.32;100.00
14041;BME280;7095;51.388;6.196;2023-02-02T07:14:05;56520.31;;;-145.32;100.00
14041;BME280;7095;51.388;6.196;2023-02-02T07:16:34;56508.38;;;-145.32;100.00
14041;BME280;7095;51.388;6.196;2023-02-02T07:19:03;56550.16;;;-145.32;100.00
14041;BME280;7095;51.388;6.196;2023-02-02T07:21:32;56653.63;;;-145.32;100.00
14041;BME280;7095;51.388;6.196;2023-02-02T07:24:03;56733.22;;;-145.32;100.00
14041;BME280;7095;51.388;6.196;2023-02-02T07:26:33;56828.75;;;-145.32;100.00
14041;BME280;7095;51.388;6.196;2023-02-02T07:29:02;57059.59;;;-145.32;100.00
14041;BME280;7095;51.388;6.196;2023-02-02T07:31:31;57206.88;;;-145.32;100.00
14041;BME280;7095;51.388;6.196;2023-02-02T07:34:02;57395.94;;;-145.32;100.00
14041;BME280;7095;51.388;6.196;2023-02-02T07:36:33;57837.84;;;-145.32;100.00
14041;BME280;7095;51.388;6.196;2023-02-02T07:39:02;58251.91;;;-145.32;100.00
14041;BME280;7095;51.388;6.196;2023-02-02T07:41:33;58829.31;;;-145.32;100.00
14041;BME280;7095;51.388;6.196;2023-02-02T07:44:02;59339.09;;;-145.32;100.00
14041;BME280;7095;51.388;6.196;2023-02-02T07:46:31;60207.50;;;-145.32;100.00
14041;BME280;7095;51.388;6.196;2023-02-02T07:48:59;60593.97;;;-145.32;100.00
14041;BME280;7095;51.388;6.196;2023-02-02T07:51:28;61088.06;;;-145.32;100.00
14041;BME280;7095;51.388;6.196;2023-02-02T07:53:57;61179.72;;;-145.32;100.00
14041;BME280;7095;51.388;6.196;2023-02-02T07:56:26;61530.44;;;-145.32;100.00
14041;BME280;7095;51.388;6.196;2023-02-02T07:58:55;61829.34;;;-145.32;100.00
14041;BME280;7095;51.388;6.196;2023-02-02T08:01:25;61811.44;;;-145.32;100.00
14041;BME280;7095;51.388;6.196;2023-02-02T08:03:57;61919.03;;;-145.32;100.00
14041;BME280;7095;51.388;6.196;2023-02-02T08:06:28;61763.59;;;-145.32;100.00
14041;BME280;7095;51.388;6.196;2023-02-02T08:08:59;61984.81;;;-145.32;100.00
14041;BME280;7095;51.388;6.196;2023-02-02T08:11:29;62146.25;;;-145.32;100.00
14041;BME280;7095;51.388;6.196;2023-02-02T08:13:58;62309.69;;;-145.32;100.00
14041;BME280;7095;51.388;6.196;2023-02-02T08:16:28;62792.09;;;-145.32;100.00
14041;BME280;7095;51.388;6.196;2023-02-02T08:18:57;63194.81;;;-145.32;100.00
14041;BME280;7095;51.388;6.196;2023-02-02T08:21:26;63278.53;;;-145.32;100.00
14041;BME280;7095;51.388;6.196;2023-02-02T08:23:54;63210.75;;;-145.32;100.00
14041;BME280;7095;51.388;6.196;2023-02-02T08:26:25;62082.47;;;-145.32;100.00
14041;BME280;7095;51.388;6.196;2023-02-02T08:28:56;61596.19;;;-145.32;100.00
14041;BME280;7095;51.388;6.196;2023-02-02T08:31:27;61484.59;;;-145.32;100.00
14041;BME280;7095;51.388;6.196;2023-02-02T08:33:56;61574.28;;;-145.32;100.00
14041;BME280;7095;51.388;6.196;2023-02-02T08:36:27;60811.13;;;-145.32;100.00
14041;BME280;7095;51.388;6.196;2023-02-02T08:38:59;61472.63;;;-145.32;100.00
14041;BME280;7095;51.388;6.196;2023-02-02T08:41:30;61251.47;;;-145.32;100.00
14041;BME280;7095;51.388;6.196;2023-02-02T08:43:59;61673.91;;;-145.32;100.00
14041;BME280;7095;51.388;6.196;2023-02-02T08:46:28;61508.50;;;-145.32;100.00
14041;BME280;7095;51.388;6.196;2023-02-02T08:48:56;61279.34;;;-145.32;100.00
14041;BME280;7095;51.388;6.196;2023-02-02T08:51:25;60564.06;;;-145.32;100.00
14041;BME280;7095;51.388;6.196;2023-02-02T08:53:54;60880.84;;;-145.32;100.00
14041;BME280;7095;51.388;6.196;2023-02-02T08:56:22;60486.38;;;-145.32;100.00
14041;BME280;7095;51.388;6.196;2023-02-02T08:58:54;60191.56;;;-145.32;100.00
14041;BME280;7095;51.388;6.196;2023-02-02T09:01:25;59860.91;;;-145.32;100.00
14041;BME280;7095;51.388;6.196;2023-02-02T09:03:55;59866.88;;;-145.32;100.00
14041;BME280;7095;51.388;6.196;2023-02-02T09:06:27;59952.53;;;-145.32;100.00
14041;BME280;7095;51.388;6.196;2023-02-02T09:08:56;59998.34;;;-145.32;100.00
14041;BME280;7095;51.388;6.196;2023-02-02T09:11:24;59992.34;;;-145.32;100.00
14041;BME280;7095;51.388;6.196;2023-02-02T09:13:55;59426.72;;;-145.32;100.00
14041;BME280;7095;51.388;6.196;2023-02-02T09:16:25;58847.22;;;-145.32;100.00
14041;BME280;7095;51.388;6.196;2023-02-02T09:18:54;58932.84;;;-145.32;100.00
14041;BME280;7095;51.388;6.196;2023-02-02T09:21:23;59201.69;;;-145.32;100.00
14041;BME280;7095;51.388;6.196;2023-02-02T09:23:53;59319.19;;;-145.32;100.00
14041;BME280;7095;51.388;6.196;2023-02-02T09:26:23;59599.97;;;-145.32;100.00
14041;BME280;7095;51.388;6.196;2023-02-02T09:28:55;59442.66;;;-145.32;100.00
14041;BME280;7095;51.388;6.196;2023-02-02T09:31:24;58877.09;;;-145.32;100.00
14041;BME280;7095;51.388;6.196;2023-02-02T09:33:54;58676.00;;;-145.32;100.00
14041;BME280;7095;51.388;6.196;2023-02-02T09:36:23;58753.66;;;-145.32;100.00
14041;BME280;7095;51.388;6.196;2023-02-02T09:38:53;58739.72;;;-145.32;100.00
14041;BME280;7095;51.388;6.196;2023-02-02T09:41:52;57700.50;;;-145.32;100.00
14041;BME280;7095;51.388;6.196;2023-02-02T09:44:37;57541.25;;;-145.32;100.00
14041;BME280;7095;51.388;6.196;2023-02-02T09:47:16;57037.72;;;-145.32;100.00
14041;BME280;7095;51.388;6.196;2023-02-02T09:49:52;57276.53;;;-145.32;100.00
14041;BME280;7095;51.388;6.196;2023-02-02T09:52:26;57051.63;;;-145.32;100.00
14041;BME280;7095;51.388;6.196;2023-02-02T09:54:58;56974.03;;;-145.32;100.00
14041;BME280;7095;51.388;6.196;2023-02-02T09:57:32;56868.56;;;-145.32;100.00
14041;BME280;7095;51.388;6.196;2023-02-02T10:00:18;56693.44;;;-145.32;100.00
14041;BME280;7095;51.388;6.196;2023-02-02T10:02:56;56534.25;;;-145.32;100.00
14041;BME280;7095;51.388;6.196;2023-02-02T10:05:31;56484.50;;;-145.32;100.00
14041;BME280;7095;51.388;6.196;2023-02-02T10:08:04;56357.16;;;-145.32;100.00
14041;BME280;7095;51.388;6.196;2023-02-02T10:10:39;56387.00;;;-145.32;100.00
14041;BME280;7095;51.388;6.196;2023-02-02T10:13:14;56301.44;;;-145.32;100.00
14041;BME280;7095;51.388;6.196;2023-02-02T10:15:51;56343.22;;;-145.32;100.00
14041;BME280;7095;51.388;6.196;2023-02-02T10:18:28;56408.88;;;-145.32;100.00
14041;BME280;7095;51.388;6.196;2023-02-02T10:21:01;56231.81;;;-145.32;100.00
14041;BME280;7095;51.388;6.196;2023-02-02T10:23:33;55979.13;;;-145.32;100.00
14041;BME280;7095;51.388;6.196;2023-02-02T10:26:07;56140.28;;;-145.32;100.00
14041;BME280;7095;51.388;6.196;2023-02-02T10:31:43;55957.25;;;-145.32;100.00
14041;BME280;7095;51.388;6.196;2023-02-02T10:34:22;56024.88;;;-145.32;100.00
14041;BME280;7095;51.388;6.196;2023-02-02T10:37:17;55704.59;;;-145.32;100.00
14041;BME280;7095;51.388;6.196;2023-02-02T10:40:01;55760.28;;;-145.32;100.00
14041;BME280;7095;51.388;6.196;2023-02-02T10:42:40;55619.03;;;-145.32;100.00
14041;BME280;7095;51.388;6.196;2023-02-02T10:45:14;55629.00;;;-145.32;100.00
14041;BME280;7095;51.388;6.196;2023-02-02T10:47:44;55652.84;;;-145.32;100.00
14041;BME280;7095;51.388;6.196;2023-02-02T10:50:16;55579.25;;;-145.32;100.00
14041;BME280;7095;51.388;6.196;2023-02-02T10:52:47;55678.72;;;-145.32;100.00
14041;BME280;7095;51.388;6.196;2023-02-02T10:55:21;55760.28;;;-145.32;100.00
14041;BME280;7095;51.388;6.196;2023-02-02T10:57:59;55917.44;;;-145.32;100.00
14041;BME280;7095;51.388;6.196;2023-02-02T11:00:36;55899.53;;;-145.32;100.00
14041;BME280;7095;51.388;6.196;2023-02-02T11:03:11;55983.09;;;-145.32;100.00
14041;BME280;7095;51.388;6.196;2023-02-02T11:05:40;55977.13;;;-145.32;100.00
14041;BME280;7095;51.388;6.196;2023-02-02T11:08:29;55893.56;;;-145.32;100.00
14041;BME280;7095;51.388;6.196;2023-02-02T11:11:09;55841.84;;;-145.32;100.00
14041;BME280;7095;51.388;6.196;2023-02-02T11:13:41;55915.47;;;-145.32;100.00
14041;BME280;7095;51.388;6.196;2023-02-02T11:16:26;55670.75;;;-145.32;100.00
14041;BME280;7095;51.388;6.196;2023-02-02T11:19:26;55718.50;;;-145.32;100.00
14041;BME280;7095;51.388;6.196;2023-02-02T11:21:56;55690.66;;;-145.32;100.00
14041;BME280;7095;51.388;6.196;2023-02-02T11:24:27;55674.75;;;-145.32;100.00
14041;BME280;7095;51.388;6.196;2023-02-02T11:27:03;55664.78;;;-145.32;100.00
14041;BME280;7095;51.388;6.196;2023-02-02T11:29:41;55615.06;;;-145.32;100.00
14041;BME280;7095;51.388;6.196;2023-02-02T11:32:24;55646.88;;;-145.32;100.00
14041;BME280;7095;51.388;6.196;2023-02-02T11:35:18;55621.03;;;-145.32;100.00
14041;BME280;7095;51.388;6.196;2023-02-02T11:37:53;55686.69;;;-145.32;100.00
14041;BME280;7095;51.388;6.196;2023-02-02T11:40:31;55575.28;;;-145.32;100.00
14041;BME280;7095;51.388;6.196;2023-02-02T11:43:03;55523.56;;;-145.32;100.00
14041;BME280;7095;51.388;6.196;2023-02-02T11:45:37;55511.63;;;-145.32;100.00
14041;BME280;7095;51.388;6.196;2023-02-02T11:48:13;55455.91;;;-145.32;100.00
14041;BME280;7095;51.388;6.196;2023-02-02T11:50:49;55509.63;;;-145.32;100.00
14041;BME280;7095;51.388;6.196;2023-02-02T11:53:22;55384.31;;;-145.32;100.00
14041;BME280;7095;51.388;6.196;2023-02-02T11:55:52;55348.50;;;-145.32;100.00
14041;BME280;7095;51.388;6.196;2023-02-02T11:58:23;55392.25;;;-145.32;100.00
14041;BME280;7095;51.388;6.196;2023-02-02T12:00:57;55372.38;;;-145.32;100.00
14041;BME280;7095;51.388;6.196;2023-02-02T12:03:30;55364.41;;;-145.32;100.00
14041;BME280;7095;51.388;6.196;2023-02-02T12:06:16;55270.94;;;-145.32;100.00
14041;BME280;7095;51.388;6.196;2023-02-02T12:08:46;55300.75;;;-145.32;100.00
14041;BME280;7095;51.388;6.196;2023-02-02T12:11:23;55260.97;;;-145.32;100.00
14041;BME280;7095;51.388;6.196;2023-02-02T12:14:07;55300.75;;;-145.32;100.00
14041;BME280;7095;51.388;6.196;2023-02-02T12:16:47;55284.84;;;-145.32;100.00
14041;BME280;7095;51.388;6.196;2023-02-02T12:19:33;55284.84;;;-145.32;100.00
14041;BME280;7095;51.388;6.196;2023-02-02T12:22:18;55153.56;;;-145.32;100.00
14041;BME280;7095;51.388;6.196;2023-02-02T12:24:55;55203.31;;;-145.32;100.00
14041;BME280;7095;51.388;6.196;2023-02-02T12:27:32;55229.16;;;-145.32;100.00
14041;BME280;7095;51.388;6.196;2023-02-02T12:30:16;55280.88;;;-145.32;100.00
14041;BME280;7095;51.388;6.196;2023-02-02T12:36:02;55276.91;;;-145.32;100.00
14041;BME280;7095;51.388;6.196;2023-02-02T12:38:50;55412.16;;;-145.32;100.00
14041;BME280;7095;51.388;6.196;2023-02-02T12:41:34;55483.78;;;-145.32;100.00
14041;BME280;7095;51.388;6.196;2023-02-02T12:44:10;55547.44;;;-145.32;100.00
14041;BME280;7095;51.388;6.196;2023-02-02T12:46:58;55451.94;;;-145.32;100.00
14041;BME280;7095;51.388;6.196;2023-02-02T12:49:51;55416.13;;;-145.32;100.00
14041;BME280;7095;51.388;6.196;2023-02-02T12:52:36;55344.53;;;-145.32;100.00
14041;BME280;7095;51.388;6.196;2023-02-02T12:55:17;55320.66;;;-145.32;100.00
14041;BME280;7095;51.388;6.196;2023-02-02T12:57:55;55300.75;;;-145.32;100.00
14041;BME280;7095;51.388;6.196;2023-02-02T13:03:28;55225.19;;;-145.32;100.00
14041;BME280;7095;51.388;6.196;2023-02-02T13:06:12;55141.63;;;-145.32;100.00
14041;BME280;7095;51.388;6.196;2023-02-02T13:08:50;55193.34;;;-145.32;100.00
14041;BME280;7095;51.388;6.196;2023-02-02T13:11:32;55225.19;;;-145.32;100.00
14041;BME280;7095;51.388;6.196;2023-02-02T13:14:08;55149.59;;;-145.32;100.00
14041;BME280;7095;51.388;6.196;2023-02-02T13:16:42;55241.09;;;-145.32;100.00
14041;BME280;7095;51.388;6.196;2023-02-02T13:19:22;55169.50;;;-145.32;100.00
14041;BME280;7095;51.388;6.196;2023-02-02T13:21:56;55366.41;;;-145.32;100.00